sensor_id;sensor_type;location;lat;lon;timestamp;temperature;humidity
5960;DHT22;3006;50.956;7.002;2023-04-29T00:01:16;14.10;99.90
5960;DHT22;3006;50.956;7.002;2023-04-29T00:03:44;14.10;99.90
5960;DHT22;3006;50.956;7.002;2023-04-29T00:06:14;14.00;99.90
5960;DHT22;3006;50.956;7.002;2023-04-29T00:08:43;14.00;99.90
5960;DHT22;3006;50.956;7.002;2023-04-29T00:11:11;14.00;99.90
5960;DHT22;3006;50.956;7.002;2023-04-29T00:13:39;13.90;99.90
5960;DHT22;3006;50.956;7.002;2023-04-29T00:16:07;13.90;99.90
5960;DHT22;3006;50.956;7.002;2023-04-29T00:18:36;13.90;99.90
5960;DHT22;3006;50.956;7.002;2023-04-29T00:21:04;13.90;99.90
5960;DHT22;3006;50.956;7.002;2023-04-29T00:23:34;13.90;99.90
5960;DHT22;3006;50.956;7.002;2023-04-29T00:26:02;14.00;99.90
5960;DHT22;3006;50.956;7.002;2023-04-29T00:28:30;14.00;99.90
5960;DHT22;3006;50.956;7.002;2023-04-29T00:30:58;13.90;99.90
5960;DHT22;3006;50.956;7.002;2023-04-29T00:33:26;13.90;99.90
5960;DHT22;3006;50.956;7.002;2023-04-29T00:35:54;13.90;99.90
5960;DHT22;3006;50.956;7.002;2023-04-29T00:38:24;14.00;99.90
5960;DHT22;3006;50.956;7.002;2023-04-29T00:40:54;13.90;99.90
5960;DHT22;3006;50.956;7.002;2023-04-29T00:43:22;13.90;99.90
5960;DHT22;3006;50.956;7.002;2023-04-29T00:45:50;13.90;99.90
5960;DHT22;3006;50.956;7.002;2023-04-29T00:48:18;13.90;99.90
5960;DHT22;3006;50.956;7.002;2023-04-29T00:50:46;13.90;99.90
5960;DHT22;3006;50.956;7.002;2023-04-29T00:53:14;14.00;99.90
5960;DHT22;3006;50.956;7.002;2023-04-29T00:55:43;14.00;99.90
5960;DHT22;3006;50.956;7.002;2023-04-29T00:58:14;14.00;99.90
5960;DHT22;3006;50.956;7.002;2023-04-29T01:00:43;13.90;99.90
5960;DHT22;3006;50.956;7.002;2023-04-29T01:03:12;13.80;99.90
5960;DHT22;3006;50.956;7.002;2023-04-29T01:05:42;13.80;99.90
5960;DHT22;3006;50.956;7.002;2023-04-29T01:08:22;13.80;99.90
5960;DHT22;3006;50.956;7.002;2023-04-29T01:11:02;13.80;99.90
5960;DHT22;3006;50.956;7.002;2023-04-29T01:13:41;13.80;99.90
5960;DHT22;3006;50.956;7.002;2023-04-29T01:16:12;13.80;99.90
5960;DHT22;3006;50.956;7.002;2023-04-29T01:18:49;13.80;99.90
5960;DHT22;3006;50.956;7.002;2023-04-29T01:21:25;13.80;99.90
5960;DHT22;3006;50.956;7.002;2023-04-29T01:23:55;13.80;99.90
5960;DHT22;3006;50.956;7.002;2023-04-29T01:26:28;13.80;99.90
5960;DHT22;3006;50.956;7.002;2023-04-29T01:29:21;13.80;99.90
5960;DHT22;3006;50.956;7.002;2023-04-29T01:32:03;13.80;99.90
5960;DHT22;3006;50.956;7.002;2023-04-29T01:34:37;13.70;99.90
5960;DHT22;3006;50.956;7.002;2023-04-29T01:37:13;13.60;99.90
5960;DHT22;3006;50.956;7.002;2023-04-29T01:39:55;13.50;99.90
5960;DHT22;3006;50.956;7.002;2023-04-29T01:42:33;13.40;99.90
5960;DHT22;3006;50.956;7.002;2023-04-29T01:45:10;13.30;99.90
5960;DHT22;3006;50.956;7.002;2023-04-29T01:47:40;13.30;99.90
5960;DHT22;3006;50.956;7.002;2023-04-29T01:50:09;13.20;99.90
5960;DHT22;3006;50.956;7.002;2023-04-29T01:52:38;13.20;99.90
5960;DHT22;3006;50.956;7.002;2023-04-29T01:55:08;13.20;99.90
5960;DHT22;3006;50.956;7.002;2023-04-29T01:57:45;13.10;99.90
5960;DHT22;3006;50.956;7.002;2023-04-29T02:00:33;13.10;99.90
5960;DHT22;3006;50.956;7.002;2023-04-29T02:03:01;13.10;99.90
5960;DHT22;3006;50.956;7.002;2023-04-29T02:05:37;13.10;99.90
5960;DHT22;3006;50.956;7.002;2023-04-29T02:08:05;13.10;99.90
5960;DHT22;3006;50.956;7.002;2023-04-29T02:10:40;13.10;99.90
5960;DHT22;3006;50.956;7.002;2023-04-29T02:13:27;13.10;99.90
5960;DHT22;3006;50.956;7.002;2023-04-29T02:15:55;13.00;99.90
5960;DHT22;3006;50.956;7.002;2023-04-29T02:18:24;13.00;99.90
5960;DHT22;3006;50.956;7.002;2023-04-29T02:20:59;13.00;99.90
5960;DHT22;3006;50.956;7.002;2023-04-29T02:23:27;12.90;99.90
5960;DHT22;3006;50.956;7.002;2023-04-29T02:25:57;12.80;99.90
5960;DHT22;3006;50.956;7.002;2023-04-29T02:28:25;12.80;99.90
5960;DHT22;3006;50.956;7.002;2023-04-29T02:30:53;12.80;99.90
5960;DHT22;3006;50.956;7.002;2023-04-29T02:33:21;12.80;99.90
5960;DHT22;3006;50.956;7.002;2023-04-29T02:35:49;12.80;99.90
5960;DHT22;3006;50.956;7.002;2023-04-29T02:38:17;12.80;99.90
5960;DHT22;3006;50.956;7.002;2023-04-29T02:40:45;12.80;99.90
5960;DHT22;3006;50.956;7.002;2023-04-29T02:43:15;12.70;99.90
5960;DHT22;3006;50.956;7.002;2023-04-29T02:45:44;12.70;99.90
5960;DHT22;3006;50.956;7.002;2023-04-29T02:48:12;12.70;99.90
5960;DHT22;3006;50.956;7.002;2023-04-29T02:50:40;12.70;99.90
5960;DHT22;3006;50.956;7.002;2023-04-29T02:53:08;12.70;99.90
5960;DHT22;3006;50.956;7.002;2023-04-29T02:55:36;12.70;99.90
5960;DHT22;3006;50.956;7.002;2023-04-29T02:58:08;12.60;99.90
5960;DHT22;3006;50.956;7.002;2023-04-29T03:00:39;12.50;99.90
5960;DHT22;3006;50.956;7.002;2023-04-29T03:03:07;12.50;99.90
5960;DHT22;3006;50.956;7.002;2023-04-29T03:05:36;12.40;99.90
5960;DHT22;3006;50.956;7.002;2023-04-29T03:08:04;12.40;99.90
5960;DHT22;3006;50.956;7.002;2023-04-29T03:10:33;12.50;99.90
5960;DHT22;3006;50.956;7.002;2023-04-29T03:13:01;12.50;99.90
5960;DHT22;3006;50.956;7.002;2023-04-29T03:15:31;12.50;99.90
5960;DHT22;3006;50.956;7.002;2023-04-29T03:18:01;12.50;99.90
5960;DHT22;3006;50.956;7.002;2023-04-29T03:20:32;12.40;99.90
5960;DHT22;3006;50.956;7.002;2023-04-29T03:23:02;12.40;99.90
5960;DHT22;3006;50.956;7.002;2023-04-29T03:25:30;12.40;99.90
5960;DHT22;3006;50.956;7.002;2023-04-29T03:27:58;12.40;99.90
5960;DHT22;3006;50.956;7.002;2023-04-29T03:30:26;12.30;99.90
5960;DHT22;3006;50.956;7.002;2023-04-29T03:32:57;12.30;99.90
5960;DHT22;3006;50.956;7.002;2023-04-29T03:35:28;12.20;99.90
5960;DHT22;3006;50.956;7.002;2023-04-29T03:38:22;12.20;99.90
5960;DHT22;3006;50.956;7.002;2023-04-29T03:40:52;12.10;99.90
5960;DHT22;3006;50.956;7.002;2023-04-29T03:43:20;12.10;99.90
5960;DHT22;3006;50.956;7.002;2023-04-29T03:45:49;12.10;99.90
5960;DHT22;3006;50.956;7.002;2023-04-29T03:48:20;12.00;99.90
5960;DHT22;3006;50.956;7.002;2023-04-29T03:50:49;12.00;99.90
5960;DHT22;3006;50.956;7.002;2023-04-29T03:53:17;12.00;99.90
5960;DHT22;3006;50.956;7.002;2023-04-29T03:55:46;12.00;99.90
5960;DHT22;3006;50.956;7.002;2023-04-29T03:58:15;12.00;99.90
5960;DHT22;3006;50.956;7.002;2023-04-29T04:00:44;12.00;99.90
5960;DHT22;3006;50.956;7.002;2023-04-29T04:03:18;11.80;99.90
5960;DHT22;3006;50.956;7.002;2023-04-29T04:05:46;11.70;99.90
5960;DHT22;3006;50.956;7.002;2023-04-29T04:08:17;11.70;99.90
5960;DHT22;3006;50.956;7.002;2023-04-29T04:10:50;11.70;99.90
5960;DHT22;3006;50.956;7.002;2023-04-29T04:13:40;11.60;99.90
5960;DHT22;3006;50.956;7.002;2023-04-29T04:16:09;11.70;99.90
5960;DHT22;3006;50.956;7.002;2023-04-29T04:18:38;11.70;99.90
5960;DHT22;3006;50.956;7.002;2023-04-29T04:21:06;11.80;99.90
5960;DHT22;3006;50.956;7.002;2023-04-29T04:23:38;11.80;99.90
5960;DHT22;3006;50.956;7.002;2023-04-29T04:26:09;11.70;99.90
5960;DHT22;3006;50.956;7.002;2023-04-29T04:28:55;11.60;99.90
5960;DHT22;3006;50.956;7.002;2023-04-29T04:31:34;11.60;99.90
5960;DHT22;3006;50.956;7.002;2023-04-29T04:34:03;11.60;99.90
5960;DHT22;3006;50.956;7.002;2023-04-29T04:36:32;11.60;99.90
5960;DHT22;3006;50.956;7.002;2023-04-29T04:39:01;11.60;99.90
5960;DHT22;3006;50.956;7.002;2023-04-29T04:41:31;11.70;99.90
5960;DHT22;3006;50.956;7.002;2023-04-29T04:44:00;11.60;99.90
5960;DHT22;3006;50.956;7.002;2023-04-29T04:46:39;11.50;99.90
5960;DHT22;3006;50.956;7.002;2023-04-29T04:49:13;11.50;99.90
5960;DHT22;3006;50.956;7.002;2023-04-29T04:51:48;11.50;99.90
5960;DHT22;3006;50.956;7.002;2023-04-29T04:54:17;11.60;99.90
5960;DHT22;3006;50.956;7.002;2023-04-29T04:56:47;11.60;99.90
5960;DHT22;3006;50.956;7.002;2023-04-29T04:59:17;11.60;99.90
5960;DHT22;3006;50.956;7.002;2023-04-29T05:01:45;11.60;99.90
5960;DHT22;3006;50.956;7.002;2023-04-29T05:04:14;11.60;99.90
5960;DHT22;3006;50.956;7.002;2023-04-29T05:06:42;11.60;99.90
5960;DHT22;3006;50.956;7.002;2023-04-29T05:09:10;11.60;99.90
5960;DHT22;3006;50.956;7.002;2023-04-29T05:11:39;11.60;99.90
5960;DHT22;3006;50.956;7.002;2023-04-29T05:14:11;11.60;99.90
5960;DHT22;3006;50.956;7.002;2023-04-29T05:16:39;11.60;99.90
5960;DHT22;3006;50.956;7.002;2023-04-29T05:19:09;11.60;99.90
5960;DHT22;3006;50.956;7.002;2023-04-29T05:21:39;11.60;99.90
5960;DHT22;3006;50.956;7.002;2023-04-29T05:24:09;11.60;99.90
5960;DHT22;3006;50.956;7.002;2023-04-29T05:26:37;11.50;99.90
5960;DHT22;3006;50.956;7.002;2023-04-29T05:29:07;11.50;99.90
5960;DHT22;3006;50.956;7.002;2023-04-29T05:31:45;11.60;99.90
5960;DHT22;3006;50.956;7.002;2023-04-29T05:34:13;11.60;99.90
5960;DHT22;3006;50.956;7.002;2023-04-29T05:36:41;11.60;99.90
5960;DHT22;3006;50.956;7.002;2023-04-29T05:39:09;11.70;99.90
5960;DHT22;3006;50.956;7.002;2023-04-29T05:41:37;11.70;99.90
5960;DHT22;3006;50.956;7.002;2023-04-29T05:44:20;11.60;99.90
5960;DHT22;3006;50.956;7.002;2023-04-29T05:46:48;11.70;99.90
5960;DHT22;3006;50.956;7.002;2023-04-29T05:49:18;11.70;99.90
5960;DHT22;3006;50.956;7.002;2023-04-29T05:51:46;11.60;99.90
5960;DHT22;3006;50.956;7.002;2023-04-29T05:54:14;11.70;99.90
5960;DHT22;3006;50.956;7.002;2023-04-29T05:56:43;11.70;99.90
5960;DHT22;3006;50.956;7.002;2023-04-29T05:59:12;11.70;99.90
5960;DHT22;3006;50.956;7.002;2023-04-29T06:01:46;11.70;99.90
5960;DHT22;3006;50.956;7.002;2023-04-29T06:04:14;11.60;99.90
5960;DHT22;3006;50.956;7.002;2023-04-29T06:07:01;11.70;99.90
5960;DHT22;3006;50.956;7.002;2023-04-29T06:09:55;11.60;99.90
5960;DHT22;3006;50.956;7.002;2023-04-29T06:12:25;11.60;99.90
5960;DHT22;3006;50.956;7.002;2023-04-29T06:14:53;11.60;99.90
5960;DHT22;3006;50.956;7.002;2023-04-29T06:17:22;11.70;99.90
5960;DHT22;3006;50.956;7.002;2023-04-29T06:19:51;11.60;99.90
5960;DHT22;3006;50.956;7.002;2023-04-29T06:22:19;11.60;99.90
5960;DHT22;3006;50.956;7.002;2023-04-29T06:24:50;11.60;99.90
5960;DHT22;3006;50.956;7.002;2023-04-29T06:27:40;11.70;99.90
5960;DHT22;3006;50.956;7.002;2023-04-29T06:30:09;11.70;99.90
5960;DHT22;3006;50.956;7.002;2023-04-29T06:32:39;11.70;99.90
5960;DHT22;3006;50.956;7.002;2023-04-29T06:35:08;11.70;99.90
5960;DHT22;3006;50.956;7.002;2023-04-29T06:37:59;11.70;99.90
5960;DHT22;3006;50.956;7.002;2023-04-29T06:40:47;11.70;99.90
5960;DHT22;3006;50.956;7.002;2023-04-29T06:43:33;11.70;99.90
5960;DHT22;3006;50.956;7.002;2023-04-29T06:46:21;11.70;99.90
5960;DHT22;3006;50.956;7.002;2023-04-29T06:49:01;11.70;99.90
5960;DHT22;3006;50.956;7.002;2023-04-29T06:51:31;11.60;99.90
5960;DHT22;3006;50.956;7.002;2023-04-29T06:53:59;11.60;99.90
5960;DHT22;3006;50.956;7.002;2023-04-29T06:56:27;11.60;99.90
5960;DHT22;3006;50.956;7.002;2023-04-29T06:58:55;11.60;99.90
5960;DHT22;3006;50.956;7.002;2023-04-29T07:01:23;11.60;99.90
5960;DHT22;3006;50.956;7.002;2023-04-29T07:03:51;11.70;99.90
5960;DHT22;3006;50.956;7.002;2023-04-29T07:06:21;11.70;99.90
5960;DHT22;3006;50.956;7.002;2023-04-29T07:08:51;11.80;99.90
5960;DHT22;3006;50.956;7.002;2023-04-29T07:11:22;11.80;99.90
5960;DHT22;3006;50.956;7.002;2023-04-29T07:13:52;11.80;99.90
5960;DHT22;3006;50.956;7.002;2023-04-29T07:16:20;11.90;99.90
5960;DHT22;3006;50.956;7.002;2023-04-29T07:18:52;12.00;99.90
5960;DHT22;3006;50.956;7.002;2023-04-29T07:21:21;12.00;99.90
5960;DHT22;3006;50.956;7.002;2023-04-29T07:23:50;12.10;99.90
5960;DHT22;3006;50.956;7.002;2023-04-29T07:26:17;12.10;99.90
5960;DHT22;3006;50.956;7.002;2023-04-29T07:28:47;12.10;99.90
5960;DHT22;3006;50.956;7.002;2023-04-29T07:31:16;12.10;99.90
5960;DHT22;3006;50.956;7.002;2023-04-29T07:33:44;12.10;99.90
5960;DHT22;3006;50.956;7.002;2023-04-29T07:36:13;12.10;99.90
5960;DHT22;3006;50.956;7.002;2023-04-29T07:38:42;12.10;99.90
5960;DHT22;3006;50.956;7.002;2023-04-29T07:41:10;12.10;99.90
5960;DHT22;3006;50.956;7.002;2023-04-29T07:43:38;12.20;99.90
5960;DHT22;3006;50.956;7.002;2023-04-29T07:46:08;12.20;99.90
5960;DHT22;3006;50.956;7.002;2023-04-29T07:48:37;12.20;99.90
5960;DHT22;3006;50.956;7.002;2023-04-29T07:51:06;12.20;99.90
5960;DHT22;3006;50.956;7.002;2023-04-29T07:53:42;12.20;99.90
5960;DHT22;3006;50.956;7.002;2023-04-29T07:56:10;12.20;99.90
5960;DHT22;3006;50.956;7.002;2023-04-29T07:58:39;12.20;99.90
5960;DHT22;3006;50.956;7.002;2023-04-29T08:01:08;12.30;99.90
5960;DHT22;3006;50.956;7.002;2023-04-29T08:03:39;12.30;99.90
5960;DHT22;3006;50.956;7.002;2023-04-29T08:06:09;12.30;99.90
5960;DHT22;3006;50.956;7.002;2023-04-29T08:08:37;12.40;99.90
5960;DHT22;3006;50.956;7.002;2023-04-29T08:11:06;12.30;99.90
5960;DHT22;3006;50.956;7.002;2023-04-29T08:13:36;12.40;99.90
5960;DHT22;3006;50.956;7.002;2023-04-29T08:16:05;12.20;99.90
5960;DHT22;3006;50.956;7.002;2023-04-29T08:18:35;12.20;99.90
5960;DHT22;3006;50.956;7.002;2023-04-29T08:21:03;12.30;99.90
5960;DHT22;3006;50.956;7.002;2023-04-29T08:23:31;12.20;99.90
5960;DHT22;3006;50.956;7.002;2023-04-29T08:25:59;12.20;99.90
5960;DHT22;3006;50.956;7.002;2023-04-29T08:28:30;12.30;99.90
5960;DHT22;3006;50.956;7.002;2023-04-29T08:30:58;12.30;99.90
5960;DHT22;3006;50.956;7.002;2023-04-29T08:33:26;12.30;99.90
5960;DHT22;3006;50.956;7.002;2023-04-29T08:35:57;12.20;99.90
5960;DHT22;3006;50.956;7.002;2023-04-29T08:38:29;12.20;99.90
5960;DHT22;3006;50.956;7.002;2023-04-29T08:40:57;12.20;99.90
5960;DHT22;3006;50.956;7.002;2023-04-29T08:43:26;12.20;99.90
5960;DHT22;3006;50.956;7.002;2023-04-29T08:45:57;12.20;99.90
5960;DHT22;3006;50.956;7.002;2023-04-29T08:48:25;12.40;99.90
5960;DHT22;3006;50.956;7.002;2023-04-29T08:50:54;12.50;99.90
5960;DHT22;3006;50.956;7.002;2023-04-29T08:53:24;12.50;99.90
5960;DHT22;3006;50.956;7.002;2023-04-29T08:55:53;12.50;99.90
5960;DHT22;3006;50.956;7.002;2023-04-29T08:58:24;12.60;99.90
5960;DHT22;3006;50.956;7.002;2023-04-29T09:00:52;12.60;99.90
5960;DHT22;3006;50.956;7.002;2023-04-29T09:03:26;12.50;99.90
5960;DHT22;3006;50.956;7.002;2023-04-29T09:05:59;12.50;99.90
5960;DHT22;3006;50.956;7.002;2023-04-29T09:08:27;12.40;99.90
5960;DHT22;3006;50.956;7.002;2023-04-29T09:10:57;12.40;99.90
5960;DHT22;3006;50.956;7.002;2023-04-29T09:13:27;12.40;99.90
5960;DHT22;3006;50.956;7.002;2023-04-29T09:15:55;12.40;99.90
5960;DHT22;3006;50.956;7.002;2023-04-29T09:18:45;12.50;99.90
5960;DHT22;3006;50.956;7.002;2023-04-29T09:21:15;12.40;99.90
5960;DHT22;3006;50.956;7.002;2023-04-29T09:23:48;12.40;99.90
5960;DHT22;3006;50.956;7.002;2023-04-29T09:26:16;12.40;99.90
5960;DHT22;3006;50.956;7.002;2023-04-29T09:28:45;12.40;99.90
5960;DHT22;3006;50.956;7.002;2023-04-29T09:31:13;12.40;99.90
5960;DHT22;3006;50.956;7.002;2023-04-29T09:33:53;12.40;99.90
5960;DHT22;3006;50.956;7.002;2023-04-29T09:36:41;12.40;99.90
5960;DHT22;3006;50.956;7.002;2023-04-29T09:39:12;12.40;99.90
5960;DHT22;3006;50.956;7.002;2023-04-29T09:41:55;12.50;99.90
5960;DHT22;3006;50.956;7.002;2023-04-29T09:44:26;12.40;99.90
5960;DHT22;3006;50.956;7.002;2023-04-29T09:46:58;12.50;99.90
5960;DHT22;3006;50.956;7.002;2023-04-29T09:49:30;12.40;99.90
5960;DHT22;3006;50.956;7.002;2023-04-29T09:52:02;12.40;99.90
5960;DHT22;3006;50.956;7.002;2023-04-29T09:54:33;12.50;99.90
5960;DHT22;3006;50.956;7.002;2023-04-29T09:57:02;12.50;99.90
5960;DHT22;3006;50.956;7.002;2023-04-29T09:59:33;12.60;99.90
5960;DHT22;3006;50.956;7.002;2023-04-29T10:02:05;12.70;99.90
5960;DHT22;3006;50.956;7.002;2023-04-29T10:04:39;12.70;99.90
5960;DHT22;3006;50.956;7.002;2023-04-29T10:07:09;12.70;99.90
5960;DHT22;3006;50.956;7.002;2023-04-29T10:09:40;12.60;99.90
5960;DHT22;3006;50.956;7.002;2023-04-29T10:12:09;12.60;99.90
5960;DHT22;3006;50.956;7.002;2023-04-29T10:14:40;12.60;99.90
5960;DHT22;3006;50.956;7.002;2023-04-29T10:17:14;12.50;99.90
5960;DHT22;3006;50.956;7.002;2023-04-29T10:19:47;12.50;99.90
5960;DHT22;3006;50.956;7.002;2023-04-29T10:22:23;12.50;99.90
5960;DHT22;3006;50.956;7.002;2023-04-29T10:24:54;12.60;99.90
5960;DHT22;3006;50.956;7.002;2023-04-29T10:27:25;12.60;99.90
5960;DHT22;3006;50.956;7.002;2023-04-29T10:29:55;12.60;99.90
5960;DHT22;3006;50.956;7.002;2023-04-29T10:32:24;12.50;99.90
5960;DHT22;3006;50.956;7.002;2023-04-29T10:35:01;12.50;99.90
5960;DHT22;3006;50.956;7.002;2023-04-29T10:37:31;12.50;99.90
5960;DHT22;3006;50.956;7.002;2023-04-29T10:40:06;12.40;99.90
5960;DHT22;3006;50.956;7.002;2023-04-29T10:42:44;12.40;99.90
5960;DHT22;3006;50.956;7.002;2023-04-29T10:45:20;12.40;99.90
5960;DHT22;3006;50.956;7.002;2023-04-29T10:48:08;12.40;99.90
5960;DHT22;3006;50.956;7.002;2023-04-29T10:50:59;12.40;99.90
5960;DHT22;3006;50.956;7.002;2023-04-29T10:53:28;12.40;99.90
5960;DHT22;3006;50.956;7.002;2023-04-29T10:55:59;12.40;99.90
5960;DHT22;3006;50.956;7.002;2023-04-29T10:58:41;12.40;99.90
5960;DHT22;3006;50.956;7.002;2023-04-29T11:01:10;12.40;99.90
5960;DHT22;3006;50.956;7.002;2023-04-29T11:03:47;12.40;99.90
5960;DHT22;3006;50.956;7.002;2023-04-29T11:06:18;12.30;99.90
5960;DHT22;3006;50.956;7.002;2023-04-29T11:08:46;12.30;99.90
5960;DHT22;3006;50.956;7.002;2023-04-29T11:11:14;12.30;99.90
5960;DHT22;3006;50.956;7.002;2023-04-29T11:13:45;12.40;99.90
5960;DHT22;3006;50.956;7.002;2023-04-29T11:16:13;12.30;99.90
5960;DHT22;3006;50.956;7.002;2023-04-29T11:19:04;12.40;99.90
5960;DHT22;3006;50.956;7.002;2023-04-29T11:21:35;12.40;99.90
5960;DHT22;3006;50.956;7.002;2023-04-29T11:24:04;12.40;99.90
5960;DHT22;3006;50.956;7.002;2023-04-29T11:26:33;12.40;99.90
5960;DHT22;3006;50.956;7.002;2023-04-29T11:29:02;12.40;99.90
5960;DHT22;3006;50.956;7.002;2023-04-29T11:31:32;12.50;99.90
5960;DHT22;3006;50.956;7.002;2023-04-29T11:34:00;12.50;99.90
5960;DHT22;3006;50.956;7.002;2023-04-29T11:36:30;12.60;99.90
5960;DHT22;3006;50.956;7.002;2023-04-29T11:39:01;12.60;99.90
5960;DHT22;3006;50.956;7.002;2023-04-29T11:41:30;12.60;99.90
5960;DHT22;3006;50.956;7.002;2023-04-29T11:43:59;12.50;99.90
5960;DHT22;3006;50.956;7.002;2023-04-29T11:46:30;12.60;99.90
5960;DHT22;3006;50.956;7.002;2023-04-29T11:48:58;12.50;99.90
5960;DHT22;3006;50.956;7.002;2023-04-29T11:51:27;12.60;99.90
5960;DHT22;3006;50.956;7.002;2023-04-29T11:53:56;12.50;99.90
5960;DHT22;3006;50.956;7.002;2023-04-29T11:56:25;12.60;99.90
5960;DHT22;3006;50.956;7.002;2023-04-29T11:58:54;12.60;99.90
5960;DHT22;3006;50.956;7.002;2023-04-29T12:01:24;12.70;99.90
5960;DHT22;3006;50.956;7.002;2023-04-29T12:03:57;12.80;99.90
5960;DHT22;3006;50.956;7.002;2023-04-29T12:06:27;12.90;99.90
5960;DHT22;3006;50.956;7.002;2023-04-29T12:08:58;12.90;99.90
5960;DHT22;3006;50.956;7.002;2023-04-29T12:11:29;12.90;99.90
5960;DHT22;3006;50.956;7.002;2023-04-29T12:13:57;12.90;99.90
5960;DHT22;3006;50.956;7.002;2023-04-29T12:16:28;12.90;99.90
5960;DHT22;3006;50.956;7.002;2023-04-29T12:18:57;12.80;99.90
5960;DHT22;3006;50.956;7.002;2023-04-29T12:21:26;12.90;99.90
5960;DHT22;3006;50.956;7.002;2023-04-29T12:23:58;12.80;99.90
5960;DHT22;3006;50.956;7.002;2023-04-29T12:26:29;12.90;99.90
5960;DHT22;3006;50.956;7.002;2023-04-29T12:28:57;12.90;99.90
5960;DHT22;3006;50.956;7.002;2023-04-29T12:31:31;12.80;99.90
5960;DHT22;3006;50.956;7.002;2023-04-29T12:34:02;12.80;99.90
5960;DHT22;3006;50.956;7.002;2023-04-29T12:36:34;12.90;99.90
5960;DHT22;3006;50.956;7.002;2023-04-29T12:39:05;12.90;99.90
5960;DHT22;3006;50.956;7.002;2023-04-29T12:41:40;13.00;99.90
5960;DHT22;3006;50.956;7.002;2023-04-29T12:44:08;13.00;99.90
5960;DHT22;3006;50.956;7.002;2023-04-29T12:46:38;13.00;99.90
5960;DHT22;3006;50.956;7.002;2023-04-29T12:49:07;13.00;99.90
5960;DHT22;3006;50.956;7.002;2023-04-29T12:51:35;13.00;99.90
5960;DHT22;3006;50.956;7.002;2023-04-29T12:54:04;13.00;99.90
5960;DHT22;3006;50.956;7.002;2023-04-29T12:56:33;13.10;99.90
5960;DHT22;3006;50.956;7.002;2023-04-29T12:59:06;13.10;99.90
5960;DHT22;3006;50.956;7.002;2023-04-29T13:01:34;13.20;99.90
5960;DHT22;3006;50.956;7.002;2023-04-29T13:04:02;13.30;99.90
5960;DHT22;3006;50.956;7.002;2023-04-29T13:06:32;13.50;99.90
5960;DHT22;3006;50.956;7.002;2023-04-29T13:09:00;13.60;99.90
5960;DHT22;3006;50.956;7.002;2023-04-29T13:11:28;13.80;99.90
5960;DHT22;3006;50.956;7.002;2023-04-29T13:14:00;13.80;99.90
5960;DHT22;3006;50.956;7.002;2023-04-29T13:16:29;13.90;99.90
5960;DHT22;3006;50.956;7.002;2023-04-29T13:18:58;14.00;99.90
5960;DHT22;3006;50.956;7.002;2023-04-29T13:21:46;14.00;99.90
5960;DHT22;3006;50.956;7.002;2023-04-29T13:24:14;14.10;99.90
5960;DHT22;3006;50.956;7.002;2023-04-29T13:26:44;14.20;99.90
5960;DHT22;3006;50.956;7.002;2023-04-29T13:29:12;14.30;99.90
5960;DHT22;3006;50.956;7.002;2023-04-29T13:31:42;14.30;99.90
5960;DHT22;3006;50.956;7.002;2023-04-29T13:34:10;14.40;99.90
5960;DHT22;3006;50.956;7.002;2023-04-29T13:36:38;14.40;99.90
5960;DHT22;3006;50.956;7.002;2023-04-29T13:39:06;14.50;99.90
5960;DHT22;3006;50.956;7.002;2023-04-29T13:41:36;14.50;99.90
5960;DHT22;3006;50.956;7.002;2023-04-29T13:44:10;14.60;99.90
5960;DHT22;3006;50.956;7.002;2023-04-29T13:46:56;14.60;99.90
5960;DHT22;3006;50.956;7.002;2023-04-29T13:49:24;14.70;99.90
5960;DHT22;3006;50.956;7.002;2023-04-29T13:51:55;14.80;99.90
5960;DHT22;3006;50.956;7.002;2023-04-29T13:54:26;14.80;99.90
5960;DHT22;3006;50.956;7.002;2023-04-29T13:57:14;14.80;99.90
5960;DHT22;3006;50.956;7.002;2023-04-29T14:00:03;14.80;99.90
5960;DHT22;3006;50.956;7.002;2023-04-29T14:02:53;14.80;99.90
5960;DHT22;3006;50.956;7.002;2023-04-29T14:05:24;14.80;99.90
5960;DHT22;3006;50.956;7.002;2023-04-29T14:07:52;14.80;99.90
5960;DHT22;3006;50.956;7.002;2023-04-29T14:10:21;14.70;99.90
5960;DHT22;3006;50.956;7.002;2023-04-29T14:12:49;14.80;99.90
5960;DHT22;3006;50.956;7.002;2023-04-29T14:15:17;14.80;99.90
5960;DHT22;3006;50.956;7.002;2023-04-29T14:17:45;14.70;99.90
5960;DHT22;3006;50.956;7.002;2023-04-29T14:20:14;14.70;99.90
5960;DHT22;3006;50.956;7.002;2023-04-29T14:22:42;14.70;99.90
5960;DHT22;3006;50.956;7.002;2023-04-29T14:25:11;14.70;99.90
5960;DHT22;3006;50.956;7.002;2023-04-29T14:27:39;14.70;99.90
5960;DHT22;3006;50.956;7.002;2023-04-29T14:30:08;14.60;99.90
5960;DHT22;3006;50.956;7.002;2023-04-29T14:32:36;14.60;99.90
5960;DHT22;3006;50.956;7.002;2023-04-29T14:35:05;14.60;99.90
5960;DHT22;3006;50.956;7.002;2023-04-29T14:37:34;14.60;99.90
5960;DHT22;3006;50.956;7.002;2023-04-29T14:40:03;14.60;99.90
5960;DHT22;3006;50.956;7.002;2023-04-29T14:42:32;14.50;99.90
5960;DHT22;3006;50.956;7.002;2023-04-29T14:45:00;14.60;99.90
5960;DHT22;3006;50.956;7.002;2023-04-29T14:47:28;14.60;99.90
5960;DHT22;3006;50.956;7.002;2023-04-29T14:49:56;14.60;99.90
5960;DHT22;3006;50.956;7.002;2023-04-29T14:52:24;14.70;99.90
5960;DHT22;3006;50.956;7.002;2023-04-29T14:54:53;14.70;99.90
5960;DHT22;3006;50.956;7.002;2023-04-29T14:57:22;14.70;99.90
5960;DHT22;3006;50.956;7.002;2023-04-29T14:59:50;14.80;99.90
5960;DHT22;3006;50.956;7.002;2023-04-29T15:02:18;14.80;99.90
5960;DHT22;3006;50.956;7.002;2023-04-29T15:04:46;14.70;99.90
5960;DHT22;3006;50.956;7.002;2023-04-29T15:07:15;14.70;99.90
5960;DHT22;3006;50.956;7.002;2023-04-29T15:09:43;14.80;99.90
5960;DHT22;3006;50.956;7.002;2023-04-29T15:12:12;14.80;99.90
5960;DHT22;3006;50.956;7.002;2023-04-29T15:14:42;14.90;99.90
5960;DHT22;3006;50.956;7.002;2023-04-29T15:17:10;15.00;99.90
5960;DHT22;3006;50.956;7.002;2023-04-29T15:19:38;15.00;99.90
5960;DHT22;3006;50.956;7.002;2023-04-29T15:22:06;15.00;99.90
5960;DHT22;3006;50.956;7.002;2023-04-29T15:24:34;15.00;99.90
5960;DHT22;3006;50.956;7.002;2023-04-29T15:27:02;14.90;99.90
5960;DHT22;3006;50.956;7.002;2023-04-29T15:29:32;14.90;99.90
5960;DHT22;3006;50.956;7.002;2023-04-29T15:32:03;15.00;99.90
5960;DHT22;3006;50.956;7.002;2023-04-29T15:34:31;15.10;99.90
5960;DHT22;3006;50.956;7.002;2023-04-29T15:36:59;15.10;99.90
5960;DHT22;3006;50.956;7.002;2023-04-29T15:39:27;15.00;99.90
5960;DHT22;3006;50.956;7.002;2023-04-29T15:41:55;15.10;99.90
5960;DHT22;3006;50.956;7.002;2023-04-29T15:44:24;15.10;99.90
5960;DHT22;3006;50.956;7.002;2023-04-29T15:46:53;15.10;99.90
5960;DHT22;3006;50.956;7.002;2023-04-29T15:49:22;15.10;99.90
5960;DHT22;3006;50.956;7.002;2023-04-29T15:51:51;15.20;99.90
5960;DHT22;3006;50.956;7.002;2023-04-29T15:54:19;15.30;99.90
5960;DHT22;3006;50.956;7.002;2023-04-29T15:56:47;15.30;99.90
5960;DHT22;3006;50.956;7.002;2023-04-29T15:59:16;15.30;99.90
5960;DHT22;3006;50.956;7.002;2023-04-29T16:01:44;15.40;99.90
5960;DHT22;3006;50.956;7.002;2023-04-29T16:04:14;15.40;99.90
5960;DHT22;3006;50.956;7.002;2023-04-29T16:06:42;15.30;99.90
5960;DHT22;3006;50.956;7.002;2023-04-29T16:09:11;15.40;99.90
5960;DHT22;3006;50.956;7.002;2023-04-29T16:11:39;15.40;99.90
5960;DHT22;3006;50.956;7.002;2023-04-29T16:14:07;15.40;99.90
5960;DHT22;3006;50.956;7.002;2023-04-29T16:16:35;15.40;99.90
5960;DHT22;3006;50.956;7.002;2023-04-29T16:19:03;15.50;99.90
5960;DHT22;3006;50.956;7.002;2023-04-29T16:21:33;15.50;99.90
5960;DHT22;3006;50.956;7.002;2023-04-29T16:24:01;15.40;99.90
5960;DHT22;3006;50.956;7.002;2023-04-29T16:26:29;15.40;99.90